Time;durP1;ratioP1;P1;durP2;ratioP2;P2;SDS_P1;SDS_P2;PMS_P1;PMS_P2;Temp;Humidity;BMP_temperature;BMP_pressure;BME280_temperature;BME280_humidity;BME280_pressure;Samples;Min_cycle;Max_cycle;Signal;HPM_P1;HPM_P2
2022/10/22 00:00:11;;;;;;;7.22;3.17;;;15.20;99.90;;;;;;4139486;28;20034;-69
2022/10/22 00:02:14;;;;;;;5.35;3.17;;;15.20;99.90;;;;;;4138983;28;20496;-69
2022/10/22 00:04:15;;;;;;;7.32;2.80;;;15.20;99.90;;;;;;4132944;28;20046;-69
2022/10/22 00:06:16;;;;;;;3.90;2.78;;;15.10;99.90;;;;;;4139696;28;20080;-69
2022/10/22 00:08:16;;;;;;;6.80;3.10;;;15.20;99.90;;;;;;4137800;28;20120;-69
2022/10/22 00:10:17;;;;;;;4.50;2.40;;;15.20;99.90;;;;;;4134913;28;20431;-69
2022/10/22 00:12:18;;;;;;;8.75;3.03;;;15.20;99.90;;;;;;4152233;28;20095;-69
2022/10/22 00:14:19;;;;;;;15.13;3.15;;;15.20;99.90;;;;;;4138041;28;20030;-70
2022/10/22 00:16:20;;;;;;;6.45;3.13;;;15.20;99.90;;;;;;4131136;28;20045;-70
2022/10/22 00:18:20;;;;;;;9.45;3.03;;;15.20;99.90;;;;;;4144415;28;20073;-69
2022/10/22 00:20:21;;;;;;;3.80;2.67;;;15.20;99.90;;;;;;4145674;28;20042;-69
2022/10/22 00:22:22;;;;;;;12.50;2.97;;;15.20;99.90;;;;;;4133596;28;20057;-69
2022/10/22 00:24:23;;;;;;;5.35;2.63;;;15.20;99.90;;;;;;4137361;28;20041;-70
2022/10/22 00:26:24;;;;;;;8.43;3.30;;;15.20;99.90;;;;;;4130922;28;20035;-70
2022/10/22 00:28:24;;;;;;;8.35;3.47;;;15.20;99.90;;;;;;4137948;28;20548;-70
2022/10/22 00:30:25;;;;;;;8.55;3.35;;;15.20;99.90;;;;;;4128381;28;20508;-69
2022/10/22 00:32:26;;;;;;;7.18;3.55;;;15.10;99.90;;;;;;4131234;28;20514;-70
2022/10/22 00:34:27;;;;;;;4.32;2.90;;;15.10;99.90;;;;;;4126741;28;20769;-70
2022/10/22 00:36:27;;;;;;;7.40;3.25;;;15.10;99.90;;;;;;4119503;28;20045;-70
2022/10/22 00:38:28;;;;;;;5.32;3.10;;;15.10;99.90;;;;;;4120587;28;20042;-70
2022/10/22 00:40:29;;;;;;;6.18;3.25;;;15.10;99.90;;;;;;4120917;28;20389;-70
2022/10/22 00:42:29;;;;;;;5.90;2.78;;;15.20;99.90;;;;;;4117295;28;20043;-69
2022/10/22 00:45:07;;;;;;;6.63;3.33;;;15.20;99.90;;;;;;4132553;28;20041;-70
2022/10/22 00:47:08;;;;;;;4.97;2.80;;;15.20;99.90;;;;;;4117462;28;20541;-70
2022/10/22 00:49:08;;;;;;;4.90;3.00;;;15.20;99.90;;;;;;4124185;28;20042;-69
2022/10/22 00:51:09;;;;;;;8.90;3.58;;;15.20;99.90;;;;;;4123112;28;20030;-69
2022/10/22 00:53:17;;;;;;;6.55;3.53;;;15.20;99.90;;;;;;4127502;28;20496;-69
2022/10/22 00:55:19;;;;;;;7.38;3.45;;;15.20;99.90;;;;;;4122143;28;20046;-69
2022/10/22 00:57:21;;;;;;;8.60;3.95;;;15.20;99.90;;;;;;4123327;28;20034;-69
2022/10/22 00:59:22;;;;;;;6.73;3.50;;;15.20;99.90;;;;;;4121251;28;20438;-70
2022/10/22 01:01:28;;;;;;;8.30;3.75;;;15.20;99.90;;;;;;4121284;28;20034;-76
2022/10/22 01:03:30;;;;;;;7.78;3.50;;;15.20;99.90;;;;;;4118611;28;20035;-76
2022/10/22 01:05:38;;;;;;;5.70;3.60;;;15.20;99.90;;;;;;4123442;28;20081;-73
2022/10/22 01:07:45;;;;;;;5.70;3.83;;;15.20;99.90;;;;;;4119577;28;20023;-70
2022/10/22 01:10:01;;;;;;;6.20;3.30;;;15.20;99.90;;;;;;4120936;28;20042;-76
2022/10/22 01:12:08;;;;;;;4.75;3.30;;;15.20;99.90;;;;;;4115335;28;20034;-75
2022/10/22 01:14:21;;;;;;;5.82;3.30;;;15.20;99.90;;;;;;4134628;28;20038;-68
2022/10/22 01:16:33;;;;;;;6.53;3.38;;;15.20;99.90;;;;;;4120321;28;20491;-75
2022/10/22 01:18:48;;;;;;;11.55;4.10;;;15.20;99.90;;;;;;4122318;28;20582;-74
2022/10/22 01:21:03;;;;;;;6.28;3.53;;;15.20;99.90;;;;;;4121351;28;20039;-76
2022/10/22 01:23:07;;;;;;;6.07;3.30;;;15.20;99.90;;;;;;4121426;28;20059;-76
2022/10/22 01:25:13;;;;;;;6.30;3.60;;;15.20;99.90;;;;;;4119288;28;20030;-71
2022/10/22 01:27:34;;;;;;;8.43;3.45;;;15.20;99.90;;;;;;4145158;28;20060;-75
2022/10/22 01:29:48;;;;;;;5.68;3.67;;;15.20;99.90;;;;;;4139482;28;20489;-76
2022/10/22 01:31:57;;;;;;;6.07;3.63;;;15.20;99.90;;;;;;4143207;28;20121;-75
2022/10/22 01:33:59;;;;;;;7.45;3.90;;;15.20;99.90;;;;;;4141199;28;20113;-75
2022/10/22 01:36:01;;;;;;;6.85;3.97;;;15.20;99.90;;;;;;4123171;28;20054;-75
2022/10/22 01:38:06;;;;;;;7.32;4.20;;;15.20;99.90;;;;;;4135011;28;20547;-76
2022/10/22 01:40:08;;;;;;;8.43;3.92;;;15.20;99.90;;;;;;4134187;28;20034;-75
2022/10/22 01:42:11;;;;;;;5.40;3.40;;;15.30;99.90;;;;;;4140625;28;20030;-73
2022/10/22 01:44:29;;;;;;;5.75;3.60;;;15.20;99.90;;;;;;4137353;28;20116;-76
2022/10/22 01:46:30;;;;;;;7.00;3.30;;;15.20;99.90;;;;;;4127146;28;20031;-75
2022/10/22 01:48:38;;;;;;;4.97;3.70;;;15.20;99.90;;;;;;4129759;28;20506;-76
2022/10/22 01:50:50;;;;;;;4.65;3.65;;;15.20;99.90;;;;;;4141503;28;20176;-76
2022/10/22 01:52:56;;;;;;;5.68;3.22;;;15.20;99.90;;;;;;4161209;28;20025;-76
2022/10/22 01:55:29;;;;;;;7.25;3.30;;;15.20;99.90;;;;;;4150475;28;20415;-75
2022/10/22 01:58:02;;;;;;;5.20;3.20;;;15.20;99.90;;;;;;4140993;28;20057;-75
2022/10/22 02:00:12;;;;;;;5.22;3.30;;;15.20;99.90;;;;;;4133062;28;20677;-71
2022/10/22 02:02:15;;;;;;;8.32;3.53;;;15.20;99.90;;;;;;4143316;28;20026;-75
2022/10/22 02:04:23;;;;;;;7.85;3.40;;;15.10;99.90;;;;;;4125681;28;20439;-75
2022/10/22 02:06:26;;;;;;;5.20;2.60;;;15.20;99.90;;;;;;4122263;28;20022;-75
2022/10/22 02:08:31;;;;;;;6.38;3.50;;;15.20;99.90;;;;;;4120373;28;20042;-75
2022/10/22 02:10:32;;;;;;;5.25;2.90;;;15.20;99.90;;;;;;4123786;28;20467;-76
2022/10/22 02:12:33;;;;;;;8.45;3.08;;;15.20;99.90;;;;;;4126146;28;20512;-76
2022/10/22 02:14:37;;;;;;;5.57;2.70;;;15.20;99.90;;;;;;4119693;28;20514;-76
2022/10/22 02:16:42;;;;;;;5.03;2.75;;;15.20;99.90;;;;;;4113330;28;20030;-75
2022/10/22 02:18:45;;;;;;;3.80;2.40;;;15.10;99.90;;;;;;4118869;28;20046;-75
2022/10/22 02:20:46;;;;;;;4.95;2.75;;;15.10;99.90;;;;;;4119704;28;20117;-75
2022/10/22 02:22:47;;;;;;;4.68;2.50;;;15.10;99.90;;;;;;4125621;28;20031;-75
2022/10/22 02:24:48;;;;;;;5.97;2.95;;;15.10;99.90;;;;;;4128841;28;20090;-76
2022/10/22 02:27:01;;;;;;;4.03;2.67;;;15.10;99.90;;;;;;4136080;28;20045;-75
2022/10/22 02:29:17;;;;;;;5.00;2.90;;;15.10;99.90;;;;;;4127948;28;20093;-76
2022/10/22 02:31:26;;;;;;;4.25;2.80;;;15.10;99.90;;;;;;4121436;28;20402;-74
2022/10/22 02:33:35;;;;;;;3.83;2.45;;;15.10;99.90;;;;;;4134396;28;20038;-76
2022/10/22 02:35:39;;;;;;;5.00;2.95;;;15.10;99.90;;;;;;4127627;28;20050;-75
2022/10/22 02:37:41;;;;;;;4.20;2.58;;;15.10;99.90;;;;;;4123035;28;20429;-75
2022/10/22 02:39:43;;;;;;;6.85;2.72;;;15.00;99.90;;;;;;4126332;28;20030;-75
2022/10/22 02:41:43;;;;;;;7.68;2.65;;;15.10;99.90;;;;;;4134148;28;20057;-76
2022/10/22 02:43:50;;;;;;;5.32;2.70;;;15.10;99.90;;;;;;4127596;28;20034;-75
2022/10/22 02:45:50;;;;;;;6.22;2.58;;;15.10;99.90;;;;;;4124073;28;20030;-75
2022/10/22 02:47:51;;;;;;;4.22;2.33;;;15.10;99.90;;;;;;4127369;28;20117;-76
2022/10/22 02:49:52;;;;;;;6.72;3.10;;;15.10;99.90;;;;;;4122699;28;20476;-75
2022/10/22 02:51:52;;;;;;;5.68;2.88;;;15.10;99.90;;;;;;4126615;28;20037;-75
2022/10/22 02:53:53;;;;;;;5.07;2.50;;;15.10;99.90;;;;;;4128324;28;20106;-76
2022/10/22 02:55:53;;;;;;;7.88;3.55;;;15.10;99.90;;;;;;4118103;28;20104;-75
2022/10/22 02:57:54;;;;;;;4.13;2.45;;;15.10;99.90;;;;;;4117823;28;20113;-75
2022/10/22 02:59:54;;;;;;;4.97;2.80;;;15.00;99.90;;;;;;4127272;28;20026;-66
2022/10/22 03:01:55;;;;;;;4.95;2.47;;;15.00;99.90;;;;;;4116714;28;20405;-67
2022/10/22 03:03:56;;;;;;;5.03;2.55;;;15.00;99.90;;;;;;4125319;28;20030;-66
2022/10/22 03:05:56;;;;;;;5.75;2.63;;;15.00;99.90;;;;;;4119763;28;20066;-67
2022/10/22 03:07:57;;;;;;;6.03;2.90;;;15.00;99.90;;;;;;4131323;28;20192;-67
2022/10/22 03:09:57;;;;;;;12.25;3.05;;;15.00;99.90;;;;;;4121324;28;20057;-66
2022/10/22 03:11:58;;;;;;;6.38;2.70;;;15.00;99.90;;;;;;4118636;28;20043;-66
2022/10/22 03:13:59;;;;;;;8.80;2.90;;;15.00;99.90;;;;;;4122666;28;20046;-67
2022/10/22 03:15:59;;;;;;;5.03;2.80;;;15.00;99.90;;;;;;4127604;28;20038;-66
2022/10/22 03:18:00;;;;;;;7.60;3.42;;;15.00;99.90;;;;;;4122022;28;20065;-66
2022/10/22 03:20:00;;;;;;;3.40;2.45;;;15.00;99.90;;;;;;4122368;28;20034;-66
2022/10/22 03:22:06;;;;;;;8.50;3.40;;;14.90;99.90;;;;;;4124891;28;20476;-66
2022/10/22 03:24:12;;;;;;;6.85;2.75;;;14.90;99.90;;;;;;4127251;28;20034;-67
2022/10/22 03:26:13;;;;;;;4.90;2.63;;;14.90;99.90;;;;;;4121460;28;20510;-67
2022/10/22 03:28:16;;;;;;;7.00;3.22;;;14.90;99.90;;;;;;4116073;28;20387;-66
2022/10/22 03:30:16;;;;;;;4.75;2.85;;;14.90;99.90;;;;;;4123153;28;20129;-67
2022/10/22 03:32:17;;;;;;;5.90;2.85;;;14.90;99.90;;;;;;4118472;28;20050;-67
2022/10/22 03:34:18;;;;;;;8.38;2.60;;;14.90;99.90;;;;;;4109523;28;20501;-66
2022/10/22 03:36:19;;;;;;;4.43;2.72;;;15.00;99.90;;;;;;4141703;28;20038;-67
2022/10/22 03:38:19;;;;;;;10.57;3.17;;;14.90;99.90;;;;;;4128172;28;20037;-67
2022/10/22 03:40:20;;;;;;;6.43;3.30;;;14.90;99.90;;;;;;4123811;28;20484;-67
2022/10/22 03:42:21;;;;;;;5.68;2.65;;;14.90;99.90;;;;;;4122329;28;20039;-66
2022/10/22 03:44:22;;;;;;;4.50;2.67;;;15.00;99.90;;;;;;4126387;28;20034;-66
2022/10/22 03:46:23;;;;;;;5.35;3.05;;;14.90;99.90;;;;;;4119973;28;20035;-66
2022/10/22 03:48:23;;;;;;;10.48;3.33;;;14.90;99.90;;;;;;4127642;28;20553;-66
2022/10/22 03:50:24;;;;;;;4.45;2.60;;;14.90;99.90;;;;;;4109342;28;20492;-66
2022/10/22 03:52:24;;;;;;;5.50;2.58;;;15.00;99.90;;;;;;4117889;28;20381;-67
2022/10/22 03:54:25;;;;;;;4.32;2.88;;;14.90;99.90;;;;;;4127990;28;20038;-66
2022/10/22 03:56:26;;;;;;;6.28;2.95;;;15.00;99.90;;;;;;4121188;28;20038;-66
2022/10/22 03:58:26;;;;;;;6.13;2.88;;;15.00;99.90;;;;;;4120226;28;20038;-67
2022/10/22 04:00:27;;;;;;;6.88;2.78;;;14.90;99.90;;;;;;4120098;28;20161;-67
2022/10/22 04:02:27;;;;;;;5.55;3.00;;;15.00;99.90;;;;;;4122154;28;20460;-67
2022/10/22 04:04:28;;;;;;;8.02;3.35;;;14.90;99.90;;;;;;4118814;28;20045;-67
2022/10/22 04:06:29;;;;;;;4.80;2.58;;;14.90;99.90;;;;;;4108953;28;20081;-66
2022/10/22 04:08:30;;;;;;;5.18;2.90;;;14.90;99.90;;;;;;4123227;28;20040;-66
2022/10/22 04:10:30;;;;;;;6.32;2.53;;;15.00;99.90;;;;;;4123644;28;20053;-66
2022/10/22 04:12:31;;;;;;;4.45;3.00;;;15.00;99.90;;;;;;4123525;28;20042;-66
2022/10/22 04:14:32;;;;;;;8.73;3.15;;;15.00;99.90;;;;;;4118047;28;20035;-68
2022/10/22 04:16:32;;;;;;;3.72;2.50;;;14.90;99.90;;;;;;4118555;28;20030;-67
2022/10/22 04:18:33;;;;;;;4.18;2.35;;;15.00;99.90;;;;;;4126306;28;20344;-66
2022/10/22 04:20:34;;;;;;;9.07;2.60;;;15.00;99.90;;;;;;4124844;28;20045;-67
2022/10/22 04:22:35;;;;;;;5.72;2.75;;;15.00;99.90;;;;;;4135236;28;20026;-66
2022/10/22 04:24:35;;;;;;;6.97;3.60;;;15.00;99.90;;;;;;4118615;28;20030;-67
2022/10/22 04:26:36;;;;;;;5.35;2.80;;;15.00;99.90;;;;;;4121890;28;20104;-66
2022/10/22 04:28:37;;;;;;;5.20;3.17;;;14.90;99.90;;;;;;4116851;28;20175;-66
2022/10/22 04:30:37;;;;;;;5.95;2.83;;;14.90;99.90;;;;;;4117550;28;20037;-67
2022/10/22 04:32:38;;;;;;;5.28;2.95;;;14.90;99.90;;;;;;4111403;28;20191;-66
2022/10/22 04:34:38;;;;;;;4.03;2.60;;;14.90;99.90;;;;;;4126029;28;20062;-67
2022/10/22 04:36:39;;;;;;;4.00;2.70;;;14.90;99.90;;;;;;4118481;28;20046;-67
2022/10/22 04:38:40;;;;;;;6.15;2.55;;;14.90;99.90;;;;;;4137628;28;20038;-67
2022/10/22 04:40:41;;;;;;;6.18;3.35;;;14.90;99.90;;;;;;4121166;28;20069;-68
2022/10/22 04:42:42;;;;;;;8.98;2.80;;;14.90;99.90;;;;;;4124337;28;20026;-67
2022/10/22 04:44:42;;;;;;;6.75;3.03;;;14.90;99.90;;;;;;4137270;28;20034;-67
2022/10/22 04:46:43;;;;;;;5.53;3.50;;;14.90;99.90;;;;;;4122951;28;20038;-67
2022/10/22 04:48:45;;;;;;;3.65;2.65;;;14.90;99.90;;;;;;4125300;28;20388;-67
2022/10/22 04:50:45;;;;;;;6.15;3.15;;;14.90;99.90;;;;;;4121874;28;20042;-66
2022/10/22 04:52:46;;;;;;;6.10;3.15;;;14.90;99.90;;;;;;4141416;28;20038;-70
2022/10/22 04:54:46;;;;;;;6.05;3.38;;;14.90;99.90;;;;;;4121484;28;20042;-68
2022/10/22 04:56:47;;;;;;;5.30;3.08;;;14.80;99.90;;;;;;4138004;28;20030;-67
2022/10/22 04:58:50;;;;;;;4.93;3.00;;;14.90;99.90;;;;;;4122695;28;20081;-67
2022/10/22 05:00:50;;;;;;;4.80;2.75;;;14.90;99.90;;;;;;4123684;28;20031;-67
2022/10/22 05:02:51;;;;;;;5.13;3.03;;;14.90;99.90;;;;;;4121192;28;20144;-66
2022/10/22 05:04:52;;;;;;;4.35;2.78;;;14.90;99.90;;;;;;4121285;28;20035;-67
2022/10/22 05:06:52;;;;;;;4.57;2.67;;;14.90;99.90;;;;;;4122399;28;20074;-67
2022/10/22 05:08:55;;;;;;;5.57;3.33;;;14.90;99.90;;;;;;4127285;28;20031;-67
2022/10/22 05:10:56;;;;;;;4.30;2.95;;;14.80;99.90;;;;;;4126335;28;20601;-67
2022/10/22 05:12:56;;;;;;;4.03;2.60;;;14.80;99.90;;;;;;4141349;28;20050;-66
2022/10/22 05:14:57;;;;;;;5.95;3.15;;;14.80;99.90;;;;;;4125356;28;20133;-67
2022/10/22 05:16:57;;;;;;;7.32;3.08;;;14.80;99.90;;;;;;4125916;28;20030;-68
2022/10/22 05:18:59;;;;;;;4.47;2.55;;;14.80;99.90;;;;;;4140709;28;20193;-67
2022/10/22 05:21:00;;;;;;;4.68;2.70;;;14.80;99.90;;;;;;4125126;28;20042;-67
2022/10/22 05:23:01;;;;;;;6.10;3.00;;;14.80;99.90;;;;;;4122361;28;20054;-67
2022/10/22 05:25:02;;;;;;;6.40;3.38;;;14.80;99.90;;;;;;4125359;28;20034;-67
2022/10/22 05:27:03;;;;;;;6.32;2.90;;;14.70;99.90;;;;;;4125656;28;20043;-69
2022/10/22 05:29:04;;;;;;;6.70;2.85;;;14.70;99.90;;;;;;4127785;28;20038;-66
2022/10/22 05:31:06;;;;;;;7.20;3.35;;;14.70;99.90;;;;;;4123338;28;20400;-67
2022/10/22 05:33:06;;;;;;;4.82;2.67;;;14.70;99.90;;;;;;4124961;28;20110;-67
2022/10/22 05:35:07;;;;;;;9.43;2.90;;;14.70;99.90;;;;;;4120726;28;20033;-67
2022/10/22 05:37:08;;;;;;;5.72;2.95;;;14.70;99.90;;;;;;4130300;28;20656;-66
2022/10/22 05:39:08;;;;;;;9.40;3.67;;;14.60;99.90;;;;;;4126944;28;20046;-68
2022/10/22 05:41:17;;;;;;;6.13;3.15;;;14.60;99.90;;;;;;4117821;28;20508;-67
2022/10/22 05:43:17;;;;;;;5.82;3.10;;;14.60;99.90;;;;;;4126900;28;20531;-67
2022/10/22 05:45:18;;;;;;;6.80;3.35;;;14.60;99.90;;;;;;4128604;28;20069;-67
2022/10/22 05:47:18;;;;;;;5.97;3.53;;;14.60;99.90;;;;;;4127575;28;20109;-67
2022/10/22 05:49:19;;;;;;;4.63;2.90;;;14.60;99.90;;;;;;4128846;28;20034;-67
2022/10/22 05:51:20;;;;;;;7.68;3.70;;;14.60;99.90;;;;;;4131421;28;20034;-66
2022/10/22 05:53:21;;;;;;;6.40;3.70;;;14.60;99.90;;;;;;4126263;28;20035;-67
2022/10/22 05:55:21;;;;;;;5.50;3.30;;;14.60;99.90;;;;;;4125560;28;20034;-67
2022/10/22 05:57:22;;;;;;;5.75;3.10;;;14.60;99.90;;;;;;4122985;28;20031;-66
2022/10/22 05:59:23;;;;;;;5.45;2.90;;;14.60;99.90;;;;;;4142342;28;20068;-66
2022/10/22 06:01:29;;;;;;;4.63;3.10;;;14.60;99.90;;;;;;4125400;28;20498;-66
2022/10/22 06:03:30;;;;;;;7.07;2.47;;;14.60;99.90;;;;;;4126619;28;20472;-67
2022/10/22 06:05:35;;;;;;;5.97;2.85;;;14.60;99.90;;;;;;4126472;28;20039;-66
2022/10/22 06:07:35;;;;;;;6.47;3.55;;;14.60;99.90;;;;;;4127674;28;20476;-66
2022/10/22 06:09:36;;;;;;;7.05;3.55;;;14.70;99.90;;;;;;4122745;28;20086;-66
2022/10/22 06:11:37;;;;;;;7.18;4.22;;;14.60;99.90;;;;;;4125316;28;20078;-66
2022/10/22 06:13:37;;;;;;;8.88;4.47;;;14.60;99.90;;;;;;4116954;28;20034;-66
2022/10/22 06:15:38;;;;;;;9.50;4.45;;;14.70;99.90;;;;;;4120509;28;20034;-67
2022/10/22 06:17:39;;;;;;;7.22;3.80;;;14.60;99.90;;;;;;4126238;28;20031;-67
2022/10/22 06:19:39;;;;;;;5.50;3.28;;;14.60;99.90;;;;;;4110624;28;20045;-67
2022/10/22 06:21:40;;;;;;;6.95;3.30;;;14.60;99.90;;;;;;4125125;28;20034;-67
2022/10/22 06:23:43;;;;;;;6.70;3.75;;;14.60;99.90;;;;;;4125652;28;20026;-67
2022/10/22 06:25:43;;;;;;;;;;;14.60;99.90;;;;;;4138327;28;20030;-66
2022/10/22 06:27:49;;;;;;;5.82;3.42;;;14.60;99.90;;;;;;4126841;28;20359;-65
2022/10/22 06:29:49;;;;;;;6.25;2.80;;;14.60;99.90;;;;;;4126382;28;20030;-66
2022/10/22 06:31:51;;;;;;;7.32;3.10;;;14.60;99.90;;;;;;4125684;28;20046;-66
2022/10/22 06:33:51;;;;;;;7.30;3.10;;;14.50;99.90;;;;;;4143164;28;20041;-66
2022/10/22 06:35:52;;;;;;;6.78;3.17;;;14.60;99.90;;;;;;4123686;28;20042;-65
2022/10/22 06:37:53;;;;;;;6.38;3.33;;;14.50;99.90;;;;;;4126507;28;20093;-65
2022/10/22 06:39:53;;;;;;;7.03;2.83;;;14.50;99.90;;;;;;4123621;28;20030;-65
2022/10/22 06:41:54;;;;;;;7.70;3.40;;;14.60;99.90;;;;;;4125925;28;20529;-65
2022/10/22 06:43:56;;;;;;;3.53;2.65;;;14.60;99.90;;;;;;4126836;28;20026;-65
2022/10/22 06:46:01;;;;;;;6.53;2.70;;;14.60;99.90;;;;;;4126563;28;20125;-67
2022/10/22 06:48:02;;;;;;;3.28;2.78;;;14.60;99.90;;;;;;4124345;28;20026;-66
2022/10/22 06:50:02;;;;;;;7.57;2.63;;;14.60;99.90;;;;;;4125251;28;20472;-65
2022/10/22 06:52:03;;;;;;;7.72;3.15;;;14.60;99.90;;;;;;4119102;28;21568;-65
2022/10/22 06:54:04;;;;;;;3.78;2.40;;;14.60;99.90;;;;;;4124069;28;20046;-66
2022/10/22 06:56:10;;;;;;;7.35;2.78;;;14.70;99.90;;;;;;4122280;28;20042;-65
2022/10/22 06:58:10;;;;;;;9.00;3.28;;;14.70;99.90;;;;;;4123961;28;20042;-66
2022/10/22 07:00:11;;;;;;;4.65;2.40;;;14.70;99.90;;;;;;4122369;28;20038;-66
2022/10/22 07:02:12;;;;;;;8.27;3.10;;;14.70;99.90;;;;;;4125721;28;20057;-66
2022/10/22 07:04:12;;;;;;;9.00;4.43;;;14.70;99.90;;;;;;4123961;28;20027;-65
2022/10/22 07:06:14;;;;;;;9.65;4.70;;;14.70;99.90;;;;;;4125986;28;20157;-67
2022/10/22 07:08:14;;;;;;;8.65;3.38;;;14.80;99.90;;;;;;4124927;28;20031;-66
2022/10/22 07:10:15;;;;;;;5.00;2.40;;;14.80;99.90;;;;;;4120499;28;20407;-66
2022/10/22 07:12:16;;;;;;;7.88;3.08;;;14.80;99.90;;;;;;4124769;28;20484;-66
2022/10/22 07:14:17;;;;;;;7.15;3.15;;;14.80;99.90;;;;;;4122880;28;20026;-64
2022/10/22 07:16:18;;;;;;;5.10;2.40;;;14.80;99.90;;;;;;4119645;28;20049;-66
2022/10/22 07:18:19;;;;;;;5.10;2.45;;;14.90;99.90;;;;;;4120883;28;20042;-66
2022/10/22 07:20:20;;;;;;;6.90;2.40;;;14.90;99.90;;;;;;4118055;28;20038;-66
2022/10/22 07:22:21;;;;;;;6.70;2.60;;;14.90;99.90;;;;;;4137659;28;20038;-65
2022/10/22 07:24:21;;;;;;;7.63;2.25;;;14.90;99.90;;;;;;4117757;28;20039;-66
2022/10/22 07:26:24;;;;;;;5.65;2.47;;;14.90;99.90;;;;;;4118055;28;20405;-66
2022/10/22 07:28:24;;;;;;;9.52;2.63;;;15.00;99.90;;;;;;4118046;28;20126;-65
2022/10/22 07:30:25;;;;;;;8.43;2.58;;;15.00;99.90;;;;;;4120878;28;20526;-65
2022/10/22 07:32:26;;;;;;;5.78;2.42;;;15.00;99.90;;;;;;4119003;28;20034;-65
2022/10/22 07:34:26;;;;;;;8.63;2.70;;;15.00;99.90;;;;;;4122378;28;20030;-65
2022/10/22 07:36:27;;;;;;;9.20;2.92;;;15.00;99.90;;;;;;4126647;28;20042;-65
2022/10/22 07:38:28;;;;;;;5.75;2.15;;;15.00;99.90;;;;;;4141630;28;20065;-66
2022/10/22 07:40:29;;;;;;;7.38;2.72;;;15.00;99.90;;;;;;4118836;28;20070;-65
2022/10/22 07:42:29;;;;;;;6.70;2.60;;;15.10;99.90;;;;;;4124721;28;20037;-66
2022/10/22 07:44:30;;;;;;;7.53;3.20;;;15.00;99.90;;;;;;4138527;28;20250;-66
2022/10/22 07:46:30;;;;;;;5.80;2.78;;;15.10;99.90;;;;;;4123470;28;20027;-66
2022/10/22 07:48:31;;;;;;;4.75;2.70;;;15.00;99.90;;;;;;4123203;28;20402;-66
2022/10/22 07:50:35;;;;;;;6.68;2.45;;;15.10;99.90;;;;;;4136099;28;20442;-66
2022/10/22 07:52:36;;;;;;;5.10;2.28;;;15.20;99.90;;;;;;4124342;28;20061;-65
2022/10/22 07:54:36;;;;;;;10.30;2.92;;;15.10;99.90;;;;;;4125021;28;20038;-66
2022/10/22 07:56:37;;;;;;;4.55;2.63;;;15.10;99.90;;;;;;4138125;28;20045;-66
2022/10/22 07:58:38;;;;;;;4.03;2.50;;;15.20;99.90;;;;;;4123957;28;20117;-66
2022/10/22 08:00:39;;;;;;;7.18;2.67;;;15.20;99.90;;;;;;4123020;28;20120;-65
2022/10/22 08:02:39;;;;;;;5.85;2.47;;;15.30;99.90;;;;;;4123883;28;20027;-66
2022/10/22 08:04:40;;;;;;;4.75;2.40;;;15.30;99.90;;;;;;4138031;28;20038;-66
2022/10/22 08:06:40;;;;;;;4.70;1.80;;;15.30;99.90;;;;;;4122133;28;20038;-66
2022/10/22 08:08:42;;;;;;;4.75;2.13;;;15.30;99.90;;;;;;4123418;28;20043;-66
2022/10/22 08:10:43;;;;;;;8.35;2.25;;;15.40;99.90;;;;;;4124064;28;20049;-66
2022/10/22 08:12:44;;;;;;;6.03;2.03;;;15.40;99.90;;;;;;4123835;28;20041;-66
2022/10/22 08:14:44;;;;;;;4.95;2.00;;;15.40;99.90;;;;;;4122529;28;20034;-66
2022/10/22 08:16:45;;;;;;;4.90;2.05;;;15.40;99.90;;;;;;4123235;28;20484;-67
2022/10/22 08:18:45;;;;;;;4.20;1.83;;;15.50;99.90;;;;;;4138876;28;20045;-66
2022/10/22 08:20:46;;;;;;;8.18;2.58;;;15.50;99.90;;;;;;4123543;28;20519;-66
2022/10/22 08:22:47;;;;;;;6.35;2.00;;;15.50;99.90;;;;;;4124973;28;20210;-66
2022/10/22 08:24:47;;;;;;;6.82;1.67;;;15.50;99.90;;;;;;4123909;28;20408;-66
2022/10/22 08:26:48;;;;;;;4.45;1.73;;;15.50;99.90;;;;;;4137860;28;20543;-66
2022/10/22 08:28:49;;;;;;;5.40;2.03;;;15.60;99.90;;;;;;4121348;28;20046;-65
2022/10/22 08:30:49;;;;;;;8.10;2.20;;;15.60;99.90;;;;;;4123917;28;20034;-65
2022/10/22 08:32:50;;;;;;;6.85;1.77;;;15.60;99.90;;;;;;4137825;28;20034;-66
2022/10/22 08:34:51;;;;;;;8.40;2.33;;;15.60;99.90;;;;;;4124920;28;20073;-66
2022/10/22 08:36:51;;;;;;;6.43;1.90;;;15.70;99.90;;;;;;4138870;28;20104;-66
2022/10/22 08:38:52;;;;;;;4.10;1.80;;;15.70;99.90;;;;;;4121754;28;20050;-67
2022/10/22 08:41:12;;;;;;;6.63;2.17;;;15.70;99.90;;;;;;4137994;28;20050;-66
2022/10/22 08:43:22;;;;;;;7.13;2.03;;;15.80;99.90;;;;;;4122046;28;20064;-66
2022/10/22 08:46:01;;;;;;;11.27;2.05;;;15.80;99.90;;;;;;4137741;28;20497;-66
2022/10/22 08:48:02;;;;;;;4.50;1.80;;;15.90;99.90;;;;;;4124078;28;20034;-66
2022/10/22 08:50:03;;;;;;;4.50;1.75;;;16.00;99.90;;;;;;4121203;28;20403;-66
2022/10/22 08:52:04;;;;;;;5.30;1.70;;;16.10;99.90;;;;;;4124126;28;20084;-67
2022/10/22 08:54:18;;;;;;;8.60;2.03;;;16.20;99.90;;;;;;4122199;28;20960;-66
2022/10/22 08:56:22;;;;;;;5.57;1.52;;;16.30;99.90;;;;;;4121889;28;20096;-66
2022/10/22 08:58:42;;;;;;;6.15;1.73;;;16.30;99.90;;;;;;4121845;28;20641;-66
2022/10/22 09:01:22;;;;;;;4.80;1.70;;;16.40;99.90;;;;;;4126634;28;20034;-66
2022/10/22 09:03:37;;;;;;;7.57;2.13;;;16.50;99.90;;;;;;4137526;28;20038;-66
2022/10/22 09:06:01;;;;;;;5.60;1.90;;;16.40;99.90;;;;;;4127408;28;20046;-67
2022/10/22 09:08:01;;;;;;;7.13;1.75;;;16.40;99.90;;;;;;4155321;28;20092;-67
2022/10/22 09:10:02;;;;;;;3.88;1.77;;;16.50;99.90;;;;;;4126427;28;21318;-67
2022/10/22 09:12:04;;;;;;;2.53;1.33;;;16.50;99.90;;;;;;4115815;28;20044;-66
2022/10/22 09:14:08;;;;;;;7.50;1.88;;;16.50;99.90;;;;;;4128732;28;20527;-66
2022/10/22 09:16:56;;;;;;;7.10;2.20;;;16.50;99.90;;;;;;4126045;28;20042;-65
2022/10/22 09:19:17;;;;;;;9.07;1.90;;;16.40;99.90;;;;;;4125004;28;20469;-67
2022/10/22 09:21:59;;;;;;;7.18;1.88;;;16.50;99.90;;;;;;4142576;28;20081;-67
2022/10/22 09:24:03;;;;;;;7.18;1.95;;;16.50;99.90;;;;;;4154151;28;20103;-66
2022/10/22 09:26:13;;;;;;;3.35;1.58;;;16.40;99.90;;;;;;4141813;28;20499;-68
2022/10/22 09:28:14;;;;;;;6.07;1.60;;;16.40;99.90;;;;;;4140902;28;20049;-66
2022/10/22 09:30:21;;;;;;;5.80;2.00;;;16.40;99.90;;;;;;4141418;28;20053;-66
2022/10/22 09:32:22;;;;;;;10.35;1.70;;;16.50;99.90;;;;;;4141841;28;20038;-67
2022/10/22 09:34:23;;;;;;;5.53;1.77;;;16.50;99.90;;;;;;4137860;28;20049;-67
2022/10/22 09:36:24;;;;;;;10.85;2.47;;;16.50;99.90;;;;;;4139988;28;20045;-67
2022/10/22 09:38:28;;;;;;;7.35;1.92;;;16.50;99.90;;;;;;4156782;28;20072;-66
2022/10/22 09:40:28;;;;;;;8.82;1.75;;;16.50;99.90;;;;;;4140241;28;20042;-67
2022/10/22 09:42:32;;;;;;;4.75;1.75;;;16.50;99.90;;;;;;4159452;28;20049;-66
2022/10/22 09:44:34;;;;;;;6.28;1.77;;;16.50;99.90;;;;;;4141562;28;20479;-66
2022/10/22 09:46:44;;;;;;;5.63;1.65;;;16.50;99.90;;;;;;4140428;28;20103;-66
2022/10/22 09:48:57;;;;;;;6.60;1.55;;;16.50;99.90;;;;;;4140429;28;20423;-66
2022/10/22 09:51:14;;;;;;;6.72;2.00;;;16.50;99.90;;;;;;4141149;28;20113;-66
2022/10/22 09:53:24;;;;;;;5.25;1.63;;;16.50;99.90;;;;;;4144019;28;20034;-66
2022/10/22 09:55:25;;;;;;;11.45;1.63;;;16.60;99.90;;;;;;4141246;28;20096;-66
2022/10/22 09:57:28;;;;;;;4.82;1.48;;;16.60;99.90;;;;;;4142023;28;20507;-66
2022/10/22 09:59:36;;;;;;;6.00;1.70;;;16.60;99.90;;;;;;4139742;28;20049;-67
2022/10/22 10:01:38;;;;;;;7.30;2.15;;;16.60;99.90;;;;;;4156747;28;20042;-66
2022/10/22 10:03:38;;;;;;;7.05;2.00;;;16.70;99.90;;;;;;4141586;28;20087;-65
2022/10/22 10:05:40;;;;;;;6.43;1.85;;;16.70;99.90;;;;;;4141221;28;20152;-66
2022/10/22 10:07:40;;;;;;;4.45;1.50;;;16.70;99.90;;;;;;4142921;28;20360;-66
2022/10/22 10:09:41;;;;;;;5.57;1.60;;;16.70;99.90;;;;;;4137838;28;20045;-67
2022/10/22 10:11:57;;;;;;;6.95;1.50;;;16.80;99.90;;;;;;4139496;28;20068;-66
2022/10/22 10:14:23;;;;;;;4.72;1.55;;;16.80;99.90;;;;;;4139216;28;20396;-67
2022/10/22 10:16:32;;;;;;;4.47;1.55;;;16.80;99.90;;;;;;4138562;28;20049;-66
2022/10/22 10:18:52;;;;;;;6.85;1.50;;;16.80;99.90;;;;;;4139271;28;20495;-66
2022/10/22 10:21:06;;;;;;;4.53;1.55;;;16.80;99.90;;;;;;4138187;28;20510;-68
2022/10/22 10:23:29;;;;;;;3.70;1.30;;;16.80;99.90;;;;;;4140525;28;20189;-66
2022/10/22 10:25:48;;;;;;;;;;;16.80;99.90;;;;;;4140253;28;20038;-66
2022/10/22 10:28:00;;;;;;;4.85;1.40;;;16.90;99.90;;;;;;4138817;28;20370;-66
2022/10/22 10:30:19;;;;;;;6.57;1.40;;;16.90;99.90;;;;;;4138578;28;20026;-66
2022/10/22 10:32:56;;;;;;;4.75;1.67;;;16.90;99.90;;;;;;4140463;28;20065;-67
2022/10/22 10:35:20;;;;;;;6.40;1.30;;;16.90;99.90;;;;;;4138754;28;20041;-66
2022/10/22 10:37:25;;;;;;;8.15;1.60;;;16.90;99.90;;;;;;4142040;28;20033;-66
2022/10/22 10:39:58;;;;;;;4.53;1.52;;;16.90;99.90;;;;;;4141775;28;20989;-65
2022/10/22 10:42:23;;;;;;;5.95;1.40;;;17.00;99.90;;;;;;4132832;28;20057;-66
2022/10/22 10:44:49;;;;;;;5.50;1.30;;;17.00;99.90;;;;;;4139917;28;20050;-66
2022/10/22 10:47:27;;;;;;;3.78;1.25;;;17.00;99.90;;;;;;4121916;28;20046;-66